Time;durP1;ratioP1;P1;durP2;ratioP2;P2;SDS_P1;SDS_P2;PMS_P1;PMS_P2;Temp;Humidity;BMP_temperature;BMP_pressure;BME280_temperature;BME280_humidity;BME280_pressure;Samples;Min_cycle;Max_cycle;Signal;HPM_P1;HPM_P2
2021/01/29 00:00:01;;;;;;;0.50;0.40;;;;;;;-0.62;93.15;99895.50;5033868;28;20443;-67
2021/01/29 00:02:27;;;;;;;0.40;0.30;;;;;;;-0.64;93.43;99901.09;5033767;28;20465;-67
2021/01/29 00:04:53;;;;;;;0.73;0.73;;;;;;;-0.67;94.18;99893.59;5033748;28;20471;-68
2021/01/29 00:07:20;;;;;;;0.40;0.30;;;;;;;-0.59;93.66;99895.03;5033796;28;20469;-67
2021/01/29 00:09:46;;;;;;;0.40;0.30;;;;;;;-0.69;94.33;99892.22;5033315;28;20558;-67
2021/01/29 00:12:12;;;;;;;0.50;0.40;;;;;;;-0.82;94.55;99891.50;5033383;28;20462;-67
2021/01/29 00:14:38;;;;;;;0.40;0.30;;;;;;;-0.76;94.44;99895.84;5033606;28;20447;-67
2021/01/29 00:17:04;;;;;;;1.17;1.07;;;;;;;-0.69;94.31;99893.03;5033575;28;20447;-66
2021/01/29 00:19:30;;;;;;;0.40;0.37;;;;;;;-0.63;94.19;99893.91;5033570;28;20454;-67
2021/01/29 00:21:56;;;;;;;0.40;0.30;;;;;;;-0.58;93.53;99889.47;5033422;28;20467;-67
2021/01/29 00:24:23;;;;;;;0.40;0.30;;;;;;;-0.52;93.88;99891.16;5033163;28;20443;-67
2021/01/29 00:26:49;;;;;;;0.40;0.30;;;;;;;-0.54;93.17;99887.13;5033459;28;20462;-68
2021/01/29 00:29:15;;;;;;;0.40;0.30;;;;;;;-0.59;93.60;99884.41;5033491;28;20443;-67
2021/01/29 00:31:41;;;;;;;0.40;0.30;;;;;;;-0.50;93.47;99880.25;5033354;28;20459;-67
2021/01/29 00:34:08;;;;;;;0.40;0.30;;;;;;;-0.46;93.40;99886.69;5033391;28;20447;-67
2021/01/29 00:36:34;;;;;;;1.13;0.77;;;;;;;-0.46;94.04;99878.72;5033463;28;20497;-67
2021/01/29 00:39:00;;;;;;;0.40;0.30;;;;;;;-0.50;94.47;99877.59;5033297;28;20446;-67
2021/01/29 00:41:27;;;;;;;0.40;0.40;;;;;;;-0.44;94.49;99881.13;5033237;28;20844;-67
2021/01/29 00:43:53;;;;;;;0.40;0.30;;;;;;;-0.32;93.70;99879.16;5033227;28;20530;-67
2021/01/29 00:46:20;;;;;;;0.40;0.30;;;;;;;-0.26;93.43;99881.66;5033250;28;20450;-67
2021/01/29 00:48:46;;;;;;;0.40;0.30;;;;;;;-0.26;94.07;99879.00;5033147;28;20538;-67
2021/01/29 00:51:12;;;;;;;0.40;0.30;;;;;;;-0.18;94.12;99875.09;5032875;28;20494;-67
2021/01/29 00:53:39;;;;;;;0.60;0.50;;;;;;;-0.12;94.38;99875.97;5033281;28;20214;-67
2021/01/29 00:56:06;;;;;;;0.40;0.30;;;;;;;-0.03;93.75;99882.47;5032928;28;20487;-67
2021/01/29 00:58:33;;;;;;;0.83;0.50;;;;;;;-0.01;93.25;99880.34;5032267;28;20823;-67
2021/01/29 01:00:59;;;;;;;0.80;0.40;;;;;;;0.02;93.46;99884.38;5032875;28;20483;-68
2021/01/29 01:03:25;;;;;;;0.70;0.57;;;;;;;0.03;92.93;99881.47;5033079;28;20446;-67
2021/01/29 01:05:52;;;;;;;0.40;0.30;;;;;;;0.05;91.50;99878.56;5033022;28;20447;-67
2021/01/29 01:08:18;;;;;;;0.40;0.40;;;;;;;-0.04;90.89;99875.53;5033037;28;20522;-67
2021/01/29 01:10:44;;;;;;;0.40;0.30;;;;;;;-0.09;91.82;99867.47;5032988;28;20451;-67
2021/01/29 01:13:11;;;;;;;0.40;0.30;;;;;;;-0.14;90.92;99870.06;5032933;28;20445;-67
2021/01/29 01:15:37;;;;;;;2.40;1.63;;;;;;;-0.20;91.74;99869.22;5032809;28;20552;-67
2021/01/29 01:18:06;;;;;;;0.40;0.40;;;;;;;-0.16;92.03;99866.88;5032855;28;20492;-67
2021/01/29 01:20:32;;;;;;;0.50;0.50;;;;;;;-0.07;91.09;99854.72;5032977;28;20438;-67
2021/01/29 01:22:58;;;;;;;0.40;0.30;;;;;;;-0.11;90.83;99869.59;5032921;28;20443;-67
2021/01/29 01:25:25;;;;;;;0.40;0.30;;;;;;;-0.09;90.61;99872.78;5032909;28;20440;-67
2021/01/29 01:27:52;;;;;;;0.40;0.30;;;;;;;-0.06;90.95;99877.63;5032876;28;20435;-67
2021/01/29 01:30:21;;;;;;;0.40;0.30;;;;;;;0.04;91.37;99879.59;5032807;28;20447;-67
2021/01/29 01:32:48;;;;;;;0.40;0.30;;;;;;;0.00;91.55;99879.31;5032703;28;20473;-68
2021/01/29 01:35:16;;;;;;;0.40;0.30;;;;;;;0.05;92.25;99868.72;5032673;28;20540;-67
2021/01/29 01:37:42;;;;;;;0.40;0.30;;;;;;;0.09;91.34;99864.50;5032806;28;20537;-66
2021/01/29 01:40:10;;;;;;;0.70;0.40;;;;;;;-0.02;90.96;99865.44;5032695;28;20439;-67
2021/01/29 01:42:37;;;;;;;0.40;0.30;;;;;;;-0.04;91.00;99865.69;5032659;28;20463;-67
2021/01/29 01:45:23;;;;;;;0.40;0.30;;;;;;;0.04;91.17;99860.97;5032679;28;20443;-67
2021/01/29 01:47:50;;;;;;;0.40;0.30;;;;;;;0.06;90.64;99858.88;5032198;28;20826;-67
2021/01/29 01:50:28;;;;;;;0.40;0.30;;;;;;;-0.03;90.44;99858.50;5032646;28;20447;-67
2021/01/29 01:52:56;;;;;;;0.40;0.30;;;;;;;0.02;91.41;99857.75;5032663;28;20431;-68
2021/01/29 01:55:29;;;;;;;0.40;0.30;;;;;;;0.04;90.78;99864.44;5033435;28;20486;-67
2021/01/29 01:57:57;;;;;;;0.70;0.70;;;;;;;-0.03;90.56;99861.16;5032601;28;20481;-67
2021/01/29 02:00:28;;;;;;;0.40;0.30;;;;;;;-0.05;90.47;99863.25;5032262;28;20938;-67
2021/01/29 02:02:59;;;;;;;0.40;0.30;;;;;;;-0.09;90.84;99867.47;5032540;28;20427;-67
2021/01/29 02:05:29;;;;;;;0.40;0.30;;;;;;;-0.15;91.31;99869.28;5032536;28;20945;-67
2021/01/29 02:07:57;;;;;;;0.40;0.30;;;;;;;-0.13;91.39;99861.88;5032487;28;20443;-67
2021/01/29 02:10:25;;;;;;;0.60;0.50;;;;;;;-0.08;91.15;99847.81;5034069;28;20447;-67
2021/01/29 02:12:51;;;;;;;0.40;0.30;;;;;;;-0.09;91.00;99862.16;5035924;28;20500;-67
2021/01/29 02:15:19;;;;;;;0.40;0.30;;;;;;;-0.18;91.15;99853.00;5035633;28;21066;-67
2021/01/29 02:18:00;;;;;;;0.40;0.30;;;;;;;-0.20;91.88;99849.78;5035736;28;20522;-67
2021/01/29 02:20:48;;;;;;;0.40;0.40;;;;;;;-0.17;92.49;99846.63;5035788;28;20442;-67
2021/01/29 02:23:48;;;;;;;0.40;0.30;;;;;;;-0.23;93.64;99843.09;5035587;28;20427;-67
2021/01/29 02:27:00;;;;;;;0.40;0.30;;;;;;;-0.08;93.20;99829.19;5035443;28;20902;-67
2021/01/29 02:29:46;;;;;;;0.40;0.30;;;;;;;-0.14;93.55;99827.50;5035661;28;20469;-67
2021/01/29 02:32:54;;;;;;;0.40;0.30;;;;;;;-0.13;93.42;99821.13;5035588;28;20528;-67
2021/01/29 02:35:52;;;;;;;0.40;0.30;;;;;;;-0.03;93.45;99830.03;5027077;28;20506;-67
2021/01/29 02:38:49;;;;;;;0.40;0.30;;;;;;;-0.05;93.65;99826.00;5015687;28;20443;-67
2021/01/29 02:41:27;;;;;;;0.40;0.30;;;;;;;0.08;92.60;99825.59;5010453;28;20555;-67
2021/01/29 02:44:26;;;;;;;0.40;0.30;;;;;;;-0.06;93.57;99819.06;5015435;28;20432;-67
2021/01/29 02:46:56;;;;;;;1.13;0.77;;;;;;;-0.06;93.99;99821.72;5003771;28;20459;-67
2021/01/29 02:49:27;;;;;;;0.40;0.30;;;;;;;-0.17;93.31;99806.72;5015539;28;20451;-67
2021/01/29 02:52:00;;;;;;;0.60;0.60;;;;;;;-0.29;92.45;99798.88;5015194;28;20483;-67
2021/01/29 02:54:34;;;;;;;0.40;0.30;;;;;;;-0.21;92.14;99805.59;5015556;28;20515;-67
2021/01/29 02:57:06;;;;;;;0.40;0.30;;;;;;;-0.27;92.26;99813.53;5014979;28;20474;-67
2021/01/29 02:59:37;;;;;;;0.40;0.30;;;;;;;-0.37;93.42;99818.72;5015071;28;20969;-67
2021/01/29 03:02:08;;;;;;;0.40;0.30;;;;;;;-0.32;93.05;99821.44;5015181;28;20579;-67
2021/01/29 03:04:41;;;;;;;0.60;0.50;;;;;;;-0.34;93.35;99823.56;5015333;28;20801;-67
2021/01/29 03:07:13;;;;;;;0.50;0.50;;;;;;;-0.35;94.01;99821.16;5015208;28;20477;-66
2021/01/29 03:09:47;;;;;;;0.40;0.30;;;;;;;-0.30;93.59;99814.03;5015153;28;20439;-67
2021/01/29 03:12:17;;;;;;;0.40;0.30;;;;;;;-0.33;93.10;99803.06;5015062;28;20556;-67
2021/01/29 03:14:46;;;;;;;0.70;0.67;;;;;;;-0.44;93.87;99802.16;5014983;28;20420;-67
2021/01/29 03:17:19;;;;;;;0.40;0.30;;;;;;;-0.44;93.92;99796.84;5015010;28;20447;-67
2021/01/29 03:19:52;;;;;;;0.50;0.40;;;;;;;-0.40;94.01;99797.94;5014719;28;20919;-67
2021/01/29 03:22:24;;;;;;;0.50;0.40;;;;;;;-0.49;94.05;99788.78;5014588;28;20468;-67
2021/01/29 03:24:55;;;;;;;0.40;0.30;;;;;;;-0.41;93.77;99793.66;5014603;28;20938;-67
2021/01/29 03:27:25;;;;;;;0.40;0.30;;;;;;;-0.38;93.41;99784.41;5014830;28;20428;-67
2021/01/29 03:29:56;;;;;;;0.40;0.30;;;;;;;-0.36;93.62;99772.44;5014454;28;20440;-67
2021/01/29 03:32:23;;;;;;;0.40;0.30;;;;;;;-0.37;93.24;99770.03;5014737;28;20456;-67
2021/01/29 03:34:58;;;;;;;0.40;0.30;;;;;;;-0.39;93.73;99770.28;5014589;28;20444;-67
2021/01/29 03:37:32;;;;;;;0.40;0.40;;;;;;;-0.38;93.98;99763.91;5029112;28;20459;-67
2021/01/29 03:40:00;;;;;;;0.40;0.30;;;;;;;-0.37;94.02;99762.84;5034133;28;20419;-67
2021/01/29 03:42:33;;;;;;;0.40;0.30;;;;;;;-0.33;94.53;99763.16;5034327;28;20458;-68
2021/01/29 03:45:08;;;;;;;0.40;0.30;;;;;;;-0.35;94.72;99766.09;5034298;28;20427;-72
2021/01/29 03:47:36;;;;;;;0.40;0.30;;;;;;;-0.35;95.82;99766.09;5034288;28;20470;-67
2021/01/29 03:50:15;;;;;;;0.40;0.40;;;;;;;-0.23;95.20;99768.59;5034162;28;20447;-67
2021/01/29 03:52:51;;;;;;;0.40;0.30;;;;;;;-0.33;95.60;99761.31;5033641;28;21014;-67
2021/01/29 03:55:29;;;;;;;0.40;0.30;;;;;;;-0.35;96.10;99762.63;5034006;28;20467;-67
2021/01/29 03:58:02;;;;;;;0.40;0.30;;;;;;;-0.46;96.28;99752.91;5034052;28;20794;-67
2021/01/29 04:00:38;;;;;;;0.63;0.63;;;;;;;-0.36;96.28;99748.50;5033640;28;20461;-67
2021/01/29 04:03:12;;;;;;;0.53;0.53;;;;;;;-0.37;96.54;99743.44;5033566;28;20431;-67
2021/01/29 04:05:45;;;;;;;0.40;0.30;;;;;;;-0.22;95.32;99740.94;5033617;28;20418;-67
2021/01/29 04:08:18;;;;;;;0.40;0.30;;;;;;;-0.12;94.80;99737.59;5033802;28;20434;-67
2021/01/29 04:10:49;;;;;;;0.40;0.30;;;;;;;-0.12;93.75;99730.41;5033738;28;20547;-67
2021/01/29 04:13:21;;;;;;;0.50;0.40;;;;;;;-0.15;92.97;99724.75;5033793;28;20450;-67
2021/01/29 04:15:50;;;;;;;0.40;0.30;;;;;;;-0.37;93.08;99712.31;5033371;28;20981;-67
2021/01/29 04:18:21;;;;;;;0.70;0.53;;;;;;;-0.53;93.41;99702.59;5033641;28;20500;-67
2021/01/29 04:20:50;;;;;;;0.40;0.40;;;;;;;-0.59;94.17;99692.91;5033686;28;20469;-67
2021/01/29 04:23:21;;;;;;;0.90;0.87;;;;;;;-0.63;94.28;99705.91;5033607;28;20447;-67
2021/01/29 04:25:56;;;;;;;0.40;0.30;;;;;;;-0.52;94.22;99698.88;5033321;28;20427;-67
2021/01/29 04:28:24;;;;;;;0.40;0.30;;;;;;;-0.41;92.63;99700.56;5033540;28;20419;-67
2021/01/29 04:30:54;;;;;;;0.40;0.30;;;;;;;-0.51;92.30;99700.47;5033415;28;20459;-67
2021/01/29 04:33:25;;;;;;;0.90;0.90;;;;;;;-0.63;93.96;99684.63;5032738;28;20443;-67
2021/01/29 04:35:56;;;;;;;0.40;0.30;;;;;;;-0.62;93.85;99675.63;5033136;28;20475;-67
2021/01/29 04:38:38;;;;;;;1.73;1.63;;;;;;;-0.54;91.90;99663.72;5033375;28;20787;-67
2021/01/29 04:41:18;;;;;;;0.40;0.30;;;;;;;-0.57;92.92;99648.28;5033291;28;20486;-67
2021/01/29 04:43:59;;;;;;;0.40;0.30;;;;;;;-0.65;94.88;99640.75;5033019;28;20422;-67
2021/01/29 04:46:38;;;;;;;0.40;0.30;;;;;;;-0.69;94.91;99647.63;5033313;28;20187;-67
2021/01/29 04:49:19;;;;;;;0.40;0.37;;;;;;;-0.67;95.43;99642.84;5033002;28;20191;-67
2021/01/29 04:52:22;;;;;;;0.53;0.53;;;;;;;-0.75;94.19;99628.16;5032674;28;20488;-67
2021/01/29 04:55:15;;;;;;;0.40;0.40;;;;;;;-0.72;93.89;99629.50;5033065;28;20446;-67
2021/01/29 04:57:53;;;;;;;0.40;0.30;;;;;;;-0.68;93.95;99619.97;5033133;28;20821;-66
2021/01/29 05:00:41;;;;;;;0.40;0.40;;;;;;;-0.65;93.74;99616.81;5033105;28;20431;-66
2021/01/29 05:03:46;;;;;;;0.40;0.30;;;;;;;-0.68;93.75;99602.16;5032286;28;20962;-67
2021/01/29 05:06:39;;;;;;;0.40;0.30;;;;;;;-0.73;93.78;99591.47;5000277;28;20455;-67
2021/01/29 05:09:16;;;;;;;0.40;0.30;;;;;;;-0.71;93.86;99599.19;5030312;28;20454;-67
2021/01/29 05:12:13;;;;;;;0.40;0.30;;;;;;;-0.81;93.51;99584.75;5032935;28;20516;-67
2021/01/29 05:15:15;;;;;;;0.40;0.30;;;;;;;-0.79;92.92;99576.53;5033040;28;20427;-67
2021/01/29 05:18:20;;;;;;;0.40;0.30;;;;;;;-0.84;93.23;99564.00;5023864;28;20459;-66
2021/01/29 05:20:59;;;;;;;0.50;0.40;;;;;;;-0.86;93.95;99552.00;5032905;28;20467;-67
2021/01/29 05:23:50;;;;;;;0.57;0.50;;;;;;;-0.73;94.03;99542.81;5032935;28;20431;-67
2021/01/29 05:26:46;;;;;;;0.43;0.37;;;;;;;-0.79;95.97;99544.66;5032841;28;20441;-67
2021/01/29 05:29:27;;;;;;;0.40;0.30;;;;;;;-0.70;96.34;99545.00;5032839;28;20447;-67
2021/01/29 05:32:26;;;;;;;0.40;0.30;;;;;;;-0.54;95.87;99549.38;5032762;28;20542;-67
2021/01/29 05:35:16;;;;;;;0.40;0.30;;;;;;;-0.49;95.89;99544.09;5032451;28;20641;-67
2021/01/29 05:37:59;;;;;;;0.40;0.30;;;;;;;-0.35;95.37;99539.97;5030673;28;20455;-67
2021/01/29 05:41:04;;;;;;;0.40;0.30;;;;;;;-0.28;94.82;99550.38;5032390;28;20427;-67
2021/01/29 05:43:52;;;;;;;0.40;0.30;;;;;;;-0.34;95.15;99536.25;5032973;28;20428;-67
2021/01/29 05:46:27;;;;;;;0.40;0.30;;;;;;;-0.27;95.16;99530.69;5036519;28;20476;-67
2021/01/29 05:49:22;;;;;;;0.40;0.30;;;;;;;-0.23;94.69;99518.47;5036501;28;20814;-67
2021/01/29 05:52:09;;;;;;;0.40;0.30;;;;;;;-0.22;94.30;99521.94;5001240;28;20917;-67
2021/01/29 05:54:55;;;;;;;0.40;0.30;;;;;;;-0.22;94.76;99521.94;5036434;28;20432;-67
2021/01/29 05:57:58;;;;;;;0.40;0.30;;;;;;;-0.14;93.66;99537.44;5036050;28;20428;-67
2021/01/29 06:00:42;;;;;;;0.40;0.30;;;;;;;-0.16;93.00;99545.69;5036501;28;20499;-67
2021/01/29 06:03:32;;;;;;;0.40;0.30;;;;;;;-0.16;92.33;99535.03;5036187;28;20431;-67
2021/01/29 06:06:29;;;;;;;0.40;0.30;;;;;;;-0.20;90.35;99533.13;5036163;28;20478;-67
2021/01/29 06:09:21;;;;;;;0.40;0.30;;;;;;;-0.25;90.33;99520.59;5031576;28;20461;-67
2021/01/29 06:12:01;;;;;;;0.60;0.40;;;;;;;-0.29;89.95;99509.66;5036098;28;20512;-67
2021/01/29 06:14:54;;;;;;;0.40;0.30;;;;;;;-0.27;90.05;99514.72;5036056;28;20428;-72
2021/01/29 06:17:53;;;;;;;0.40;0.30;;;;;;;-0.33;90.57;99516.56;5035909;28;20822;-68
2021/01/29 06:21:00;;;;;;;0.40;0.30;;;;;;;-0.30;89.47;99516.06;5035839;28;20427;-67
2021/01/29 06:23:47;;;;;;;0.40;0.30;;;;;;;-0.27;89.49;99520.03;4987273;28;20444;-67
2021/01/29 06:26:33;;;;;;;0.57;0.57;;;;;;;-0.21;89.12;99519.03;5035522;28;20803;-67
2021/01/29 06:29:28;;;;;;;0.40;0.30;;;;;;;-0.13;88.39;99509.78;5035401;28;20438;-67
2021/01/29 06:32:32;;;;;;;1.43;0.70;;;;;;;-0.16;88.23;99504.97;5035567;28;20468;-66
2021/01/29 06:35:12;;;;;;;2.80;2.53;;;;;;;-0.09;88.31;99510.84;5035546;28;20496;-67
2021/01/29 06:37:52;;;;;;;0.47;0.40;;;;;;;-0.12;88.22;99533.47;5035523;28;20427;-67
2021/01/29 06:40:25;;;;;;;0.40;0.30;;;;;;;-0.09;88.40;99529.47;5035457;28;20431;-67
2021/01/29 06:43:06;;;;;;;0.40;0.30;;;;;;;-0.14;89.21;99529.44;5035460;28;20432;-67
2021/01/29 06:45:58;;;;;;;0.50;0.50;;;;;;;-0.12;90.14;99517.50;5035216;28;20418;-67
2021/01/29 06:48:46;;;;;;;0.50;0.40;;;;;;;-0.06;90.96;99507.66;5035369;28;20427;-67
2021/01/29 06:51:29;;;;;;;0.60;0.50;;;;;;;0.07;89.95;99493.09;5034982;28;20553;-67
2021/01/29 06:54:17;;;;;;;0.40;0.30;;;;;;;0.19;90.08;99485.72;5035314;28;20424;-67
2021/01/29 06:57:17;;;;;;;0.40;0.30;;;;;;;0.19;90.50;99491.84;5034538;28;20489;-67
2021/01/29 07:00:14;;;;;;;0.40;0.30;;;;;;;0.18;90.69;99492.91;5035198;28;20470;-67
2021/01/29 07:03:02;;;;;;;0.40;0.30;;;;;;;0.18;90.57;99484.91;5035056;28;20463;-67
2021/01/29 07:05:43;;;;;;;0.40;0.30;;;;;;;0.09;91.30;99485.66;5035099;28;20432;-67
2021/01/29 07:08:22;;;;;;;0.40;0.30;;;;;;;0.19;90.71;99475.88;5034988;28;20423;-70
2021/01/29 07:11:02;;;;;;;0.43;0.37;;;;;;;0.16;90.57;99476.38;5034595;28;20990;-68
2021/01/29 07:13:40;;;;;;;0.40;0.30;;;;;;;0.20;90.68;99466.81;5034940;28;20423;-68
2021/01/29 07:16:29;;;;;;;0.47;0.47;;;;;;;0.34;89.76;99459.13;5034724;28;20831;-70
2021/01/29 07:19:15;;;;;;;0.40;0.30;;;;;;;0.35;88.46;99460.72;5034728;28;20424;-68
2021/01/29 07:22:09;;;;;;;0.57;0.50;;;;;;;0.30;88.08;99466.03;5034361;28;20471;-68
2021/01/29 07:24:43;;;;;;;0.40;0.30;;;;;;;0.25;88.70;99458.03;5034405;28;20950;-69
2021/01/29 07:27:22;;;;;;;0.40;0.30;;;;;;;0.30;87.07;99450.06;5034587;28;20485;-68
2021/01/29 07:30:14;;;;;;;0.40;0.30;;;;;;;0.38;85.77;99438.13;5034627;28;20435;-68
2021/01/29 07:32:45;;;;;;;0.40;0.30;;;;;;;0.38;85.91;99433.59;5034590;28;20462;-68
2021/01/29 07:35:20;;;;;;;0.40;0.30;;;;;;;0.41;86.60;99434.94;5034399;28;20427;-69
2021/01/29 07:38:20;;;;;;;0.50;0.40;;;;;;;0.46;86.15;99437.59;5034460;28;20442;-68
2021/01/29 07:41:03;;;;;;;0.40;0.30;;;;;;;0.45;86.61;99433.34;5034263;28;20481;-69
2021/01/29 07:43:47;;;;;;;0.40;0.33;;;;;;;0.50;85.80;99430.69;5034301;28;20427;-69
2021/01/29 07:46:47;;;;;;;0.40;0.30;;;;;;;0.54;85.96;99423.78;5033949;28;20424;-68
2021/01/29 07:49:33;;;;;;;0.40;0.30;;;;;;;0.56;86.89;99418.19;5001095;28;20451;-67
2021/01/29 07:52:07;;;;;;;0.40;0.30;;;;;;;0.61;87.43;99418.97;5034042;28;20484;-67
2021/01/29 07:54:55;;;;;;;0.40;0.33;;;;;;;0.71;86.61;99416.34;5035237;28;20443;-67
2021/01/29 07:57:53;;;;;;;0.40;0.30;;;;;;;0.78;84.76;99420.59;5033969;28;20466;-66
2021/01/29 08:00:25;;;;;;;0.40;0.30;;;;;;;0.78;84.17;99417.94;5012905;28;20517;-66
2021/01/29 08:03:30;;;;;;;0.90;0.73;;;;;;;0.85;84.19;99419.28;5034001;28;20420;-67
2021/01/29 08:06:04;;;;;;;1.00;1.00;;;;;;;0.87;83.56;99406.47;5004278;28;20483;-67
2021/01/29 08:08:35;;;;;;;0.40;0.30;;;;;;;0.86;83.46;99402.22;5033044;28;20467;-66
2021/01/29 08:11:04;;;;;;;17.27;1.30;;;;;;;0.84;83.53;99396.38;5033586;28;20993;-67
2021/01/29 08:13:45;;;;;;;1.10;0.80;;;;;;;0.86;83.35;99393.44;5033424;28;20795;-66
2021/01/29 08:16:36;;;;;;;0.40;0.40;;;;;;;0.91;84.46;99390.75;5033324;28;20470;-66
2021/01/29 08:19:08;;;;;;;4.07;2.10;;;;;;;0.98;83.87;99381.44;5033394;28;20930;-66
2021/01/29 08:21:58;;;;;;;0.40;0.30;;;;;;;1.05;84.47;99375.81;5033339;28;20458;-67
2021/01/29 08:24:45;;;;;;;0.57;0.43;;;;;;;1.03;83.23;99371.84;5033305;28;20917;-66
2021/01/29 08:28:02;;;;;;;0.50;0.50;;;;;;;1.01;83.16;99364.88;5033586;28;20432;-66
2021/01/29 08:30:58;;;;;;;0.50;0.40;;;;;;;0.97;83.30;99379.84;5020315;28;20442;-66
2021/01/29 08:33:57;;;;;;;0.97;0.57;;;;;;;0.97;83.65;99365.69;5033129;28;20907;-66
2021/01/29 08:36:36;;;;;;;0.60;0.40;;;;;;;1.09;84.43;99358.22;5033059;28;20612;-67
2021/01/29 08:39:12;;;;;;;0.40;0.30;;;;;;;1.17;84.58;99351.56;5032892;28;20422;-66
2021/01/29 08:41:54;;;;;;;0.40;0.30;;;;;;;1.21;83.05;99348.06;5032861;28;21025;-66
2021/01/29 08:44:49;;;;;;;0.43;0.37;;;;;;;1.23;83.26;99342.47;5032944;28;20427;-66
2021/01/29 08:47:25;;;;;;;0.40;0.30;;;;;;;1.24;82.48;99333.41;5031174;28;20891;-66
2021/01/29 08:50:03;;;;;;;0.40;0.30;;;;;;;1.21;82.38;99339.28;5032985;28;20463;-67
2021/01/29 08:52:58;;;;;;;0.40;0.30;;;;;;;1.31;82.20;99338.47;5032692;28;20981;-67
2021/01/29 08:55:35;;;;;;;0.40;0.30;;;;;;;1.38;82.84;99339.78;5032745;28;20431;-67
2021/01/29 08:58:11;;;;;;;0.60;0.40;;;;;;;1.48;81.93;99341.63;5032839;28;20427;-67
2021/01/29 09:00:40;;;;;;;0.50;0.50;;;;;;;1.64;81.24;99331.66;5032865;28;20427;-67
2021/01/29 09:03:18;;;;;;;1.13;0.87;;;;;;;1.68;80.88;99333.53;5032710;28;20987;-66
2021/01/29 09:05:49;;;;;;;0.40;0.30;;;;;;;1.70;80.35;99334.06;5033080;28;20419;-72
2021/01/29 09:08:20;;;;;;;0.60;0.60;;;;;;;1.76;79.62;99338.28;5033006;28;20431;-71
2021/01/29 09:11:14;;;;;;;0.73;0.50;;;;;;;1.66;80.09;99335.69;5032976;28;20609;-68
2021/01/29 09:13:42;;;;;;;0.40;0.40;;;;;;;1.71;80.43;99335.66;5032997;28;20445;-68
2021/01/29 09:16:17;;;;;;;1.13;0.87;;;;;;;1.73;80.41;99327.38;5032874;28;20493;-68
2021/01/29 09:18:49;;;;;;;0.40;0.40;;;;;;;1.83;80.63;99315.84;5033528;28;20786;-67
2021/01/29 09:21:26;;;;;;;0.40;0.40;;;;;;;1.84;80.16;99315.56;5036889;28;20520;-67
2021/01/29 09:24:02;;;;;;;0.40;0.30;;;;;;;1.92;80.17;99306.19;5036974;28;20509;-67
2021/01/29 09:26:34;;;;;;;1.57;0.97;;;;;;;1.96;79.51;99302.69;5036785;28;20457;-66
2021/01/29 09:29:06;;;;;;;0.83;0.83;;;;;;;1.97;79.66;99296.28;5036800;28;20430;-66
2021/01/29 09:31:36;;;;;;;1.33;0.63;;;;;;;1.99;79.37;99296.00;5036690;28;20482;-67
2021/01/29 09:34:09;;;;;;;1.43;1.33;;;;;;;2.01;79.63;99285.84;5036461;28;20443;-67
2021/01/29 09:36:47;;;;;;;0.40;0.30;;;;;;;2.03;79.33;99289.81;5036365;28;20578;-67
2021/01/29 09:39:21;;;;;;;1.33;0.93;;;;;;;2.03;78.89;99289.03;5036298;28;20415;-67
2021/01/29 09:41:56;;;;;;;0.40;0.30;;;;;;;2.07;78.22;99279.41;5036226;28;20984;-67
2021/01/29 09:44:26;;;;;;;0.40;0.37;;;;;;;2.07;77.18;99274.06;5036229;28;20423;-67
2021/01/29 09:46:55;;;;;;;0.50;0.43;;;;;;;2.16;77.10;99277.72;5036135;28;20991;-67
2021/01/29 09:49:23;;;;;;;0.40;0.30;;;;;;;2.22;76.97;99271.28;5036113;28;20435;-67
2021/01/29 09:52:06;;;;;;;0.40;0.30;;;;;;;2.25;76.53;99276.06;5035973;28;20474;-67
2021/01/29 09:54:48;;;;;;;0.60;0.43;;;;;;;2.25;76.67;99275.25;5036417;28;20459;-67
2021/01/29 09:57:20;;;;;;;0.40;0.30;;;;;;;2.26;76.77;99263.53;5035965;28;20492;-67
2021/01/29 09:59:55;;;;;;;0.40;0.30;;;;;;;2.26;76.98;99266.19;5036320;28;20430;-67
2021/01/29 10:02:35;;;;;;;0.40;0.30;;;;;;;2.11;77.60;99263.63;5036148;28;20533;-67
2021/01/29 10:05:20;;;;;;;0.40;0.40;;;;;;;2.05;77.42;99260.19;5035855;28;20802;-67
2021/01/29 10:07:57;;;;;;;0.40;0.30;;;;;;;2.17;77.39;99251.81;5024968;28;20455;-66
2021/01/29 10:10:31;;;;;;;0.40;0.30;;;;;;;2.07;76.56;99258.03;5036089;28;20434;-65
2021/01/29 10:13:04;;;;;;;0.50;0.40;;;;;;;2.16;75.83;99258.25;5036043;28;20427;-70
2021/01/29 10:15:36;;;;;;;0.40;0.30;;;;;;;2.30;76.15;99253.84;5035885;28;20446;-67
2021/01/29 10:18:07;;;;;;;0.40;0.30;;;;;;;2.34;75.33;99256.78;5035824;28;20570;-68
2021/01/29 10:20:37;;;;;;;0.40;0.30;;;;;;;2.26;75.19;99255.50;5035850;28;20816;-68
2021/01/29 10:23:18;;;;;;;0.40;0.30;;;;;;;2.41;75.13;99257.25;5035566;28;21009;-67
2021/01/29 10:26:08;;;;;;;2.10;1.53;;;;;;;2.52;74.51;99256.91;5035943;28;20453;-68
2021/01/29 10:29:17;;;;;;;0.40;0.30;;;;;;;2.62;74.73;99242.66;5035832;28;20441;-67
2021/01/29 10:31:50;;;;;;;0.40;0.37;;;;;;;2.76;75.12;99242.78;4973375;28;20529;-68
2021/01/29 10:34:25;;;;;;;0.40;0.40;;;;;;;2.85;74.50;99241.09;4974706;28;20450;-68
2021/01/29 10:37:00;;;;;;;0.40;0.30;;;;;;;2.94;73.23;99251.97;4991456;28;20534;-68
2021/01/29 10:39:29;;;;;;;0.40;0.30;;;;;;;2.97;72.63;99235.34;5015668;28;20443;-68
2021/01/29 10:42:01;;;;;;;0.43;0.37;;;;;;;3.03;70.70;99239.56;5015560;28;20471;-68
2021/01/29 10:44:33;;;;;;;0.40;0.30;;;;;;;3.10;70.32;99242.69;5015428;28;20423;-67
2021/01/29 10:47:20;;;;;;;0.40;0.27;;;;;;;3.18;69.48;99238.59;5015221;28;20955;-68
2021/01/29 10:49:53;;;;;;;0.40;0.30;;;;;;;3.31;69.84;99245.91;5015564;28;20447;-67
2021/01/29 10:52:39;;;;;;;0.80;0.80;;;;;;;3.28;69.15;99225.09;5015222;28;20490;-68
2021/01/29 10:55:17;;;;;;;0.40;0.30;;;;;;;3.28;68.90;99230.44;5015177;28;20448;-68
2021/01/29 10:57:54;;;;;;;1.93;0.93;;;;;;;3.27;68.75;99231.50;5015077;28;20507;-67
2021/01/29 11:00:24;;;;;;;0.40;0.30;;;;;;;3.27;68.05;99220.81;5015115;28;20479;-68
2021/01/29 11:02:59;;;;;;;0.50;0.40;;;;;;;3.27;66.88;99226.16;5015427;28;20468;-68
2021/01/29 11:05:30;;;;;;;2.20;0.40;;;;;;;3.22;67.26;99224.34;5014866;28;20824;-67
2021/01/29 11:08:07;;;;;;;0.40;0.30;;;;;;;3.27;67.01;99216.25;5015170;28;20479;-67
2021/01/29 11:10:33;;;;;;;0.40;0.30;;;;;;;3.25;65.09;99213.09;5015170;28;20463;-68
2021/01/29 11:13:05;;;;;;;0.40;0.30;;;;;;;3.26;65.71;99214.66;5015056;28;20456;-68
2021/01/29 11:15:39;;;;;;;0.40;0.33;;;;;;;3.31;67.78;99205.78;5015156;28;20459;-67
2021/01/29 11:18:14;;;;;;;0.40;0.30;;;;;;;3.53;66.48;99214.06;5015090;28;20435;-68
2021/01/29 11:20:42;;;;;;;0.40;0.30;;;;;;;3.67;65.76;99203.41;5014762;28;20873;-67
2021/01/29 11:23:22;;;;;;;1.47;0.50;;;;;;;3.61;64.26;99196.56;5014773;28;20452;-68
2021/01/29 11:25:59;;;;;;;0.60;0.57;;;;;;;3.65;64.65;99196.78;5014995;28;20451;-68
2021/01/29 11:28:39;;;;;;;0.40;0.30;;;;;;;3.72;64.27;99195.34;5014810;28;20872;-68
2021/01/29 11:31:14;;;;;;;0.50;0.50;;;;;;;3.74;65.38;99192.38;5014565;28;20471;-68
2021/01/29 11:33:44;;;;;;;0.40;0.30;;;;;;;3.88;64.04;99171.00;5014802;28;20450;-67
2021/01/29 11:36:25;;;;;;;1.37;1.27;;;;;;;3.91;63.60;99178.47;5014434;28;20480;-67
2021/01/29 11:38:58;;;;;;;0.40;0.30;;;;;;;3.90;63.19;99172.31;5014525;28;20444;-68
2021/01/29 11:41:33;;;;;;;0.40;0.30;;;;;;;3.94;63.51;99167.13;5014272;28;20547;-68
2021/01/29 11:44:11;;;;;;;0.40;0.30;;;;;;;3.97;64.29;99164.69;5014529;28;20448;-67
2021/01/29 11:46:48;;;;;;;0.40;0.30;;;;;;;3.98;64.83;99157.44;5014366;28;20417;-67
2021/01/29 11:49:19;;;;;;;0.40;0.30;;;;;;;4.09;64.87;99145.47;5014215;28;20443;-67
2021/01/29 11:52:00;;;;;;;0.40;0.27;;;;;;;4.12;64.58;99150.25;5014288;28;20490;-67
2021/01/29 11:54:38;;;;;;;0.40;0.30;;;;;;;4.06;63.97;99138.03;5014298;28;20482;-67
2021/01/29 11:57:11;;;;;;;0.40;0.20;;;;;;;4.12;64.06;99138.72;5013980;28;21039;-67
2021/01/29 11:59:47;;;;;;;0.40;0.20;;;;;;;4.09;63.68;99131.28;5014413;28;20475;-67
2021/01/29 12:02:24;;;;;;;0.73;0.67;;;;;;;3.89;64.32;99124.38;5014124;28;20463;-67
2021/01/29 12:04:55;;;;;;;0.40;0.30;;;;;;;3.75;64.08;99130.47;5014216;28;20926;-67
2021/01/29 12:07:28;;;;;;;0.70;0.70;;;;;;;3.70;64.74;99122.53;5013918;28;20421;-68
2021/01/29 12:10:02;;;;;;;0.50;0.50;;;;;;;3.55;64.90;99112.06;5014033;28;20444;-67
2021/01/29 12:12:39;;;;;;;0.70;0.70;;;;;;;3.52;64.39;99104.59;5013873;28;20494;-67
2021/01/29 12:15:21;;;;;;;0.40;0.33;;;;;;;3.51;64.83;99100.34;5013927;28;20455;-67
2021/01/29 12:17:52;;;;;;;0.83;0.50;;;;;;;3.29;63.45;99091.03;5013719;28;20475;-67
2021/01/29 12:20:23;;;;;;;0.40;0.30;;;;;;;3.36;64.53;99089.84;5013858;28;20490;-67
2021/01/29 12:23:04;;;;;;;0.40;0.30;;;;;;;3.20;66.23;99074.03;5013706;28;20476;-67
2021/01/29 12:25:43;;;;;;;0.40;0.30;;;;;;;3.16;64.74;99089.06;5013895;28;20444;-67